sensor_id;sensor_type;location;lat;lon;timestamp;P1;durP1;ratioP1;P2;durP2;ratioP2
22955;SDS011;40888;48.148;11.526;2022-07-06T00:01:23;2.53;;;1.40;;
22955;SDS011;40888;48.148;11.526;2022-07-06T00:03:49;3.00;;;1.65;;
22955;SDS011;40888;48.148;11.526;2022-07-06T00:06:15;1.70;;;1.60;;
22955;SDS011;40888;48.148;11.526;2022-07-06T00:08:42;2.38;;;1.70;;
22955;SDS011;40888;48.148;11.526;2022-07-06T00:11:09;1.60;;;1.50;;
22955;SDS011;40888;48.148;11.526;2022-07-06T00:13:36;1.50;;;1.40;;
22955;SDS011;40888;48.148;11.526;2022-07-06T00:16:03;2.58;;;1.90;;
22955;SDS011;40888;48.148;11.526;2022-07-06T00:18:29;1.92;;;1.65;;
22955;SDS011;40888;48.148;11.526;2022-07-06T00:20:55;3.80;;;1.55;;
22955;SDS011;40888;48.148;11.526;2022-07-06T00:23:21;2.58;;;1.38;;
22955;SDS011;40888;48.148;11.526;2022-07-06T00:25:48;4.32;;;1.35;;
22955;SDS011;40888;48.148;11.526;2022-07-06T00:28:14;2.65;;;1.58;;
22955;SDS011;40888;48.148;11.526;2022-07-06T00:30:40;1.98;;;1.30;;
22955;SDS011;40888;48.148;11.526;2022-07-06T00:33:06;2.22;;;1.60;;
22955;SDS011;40888;48.148;11.526;2022-07-06T00:35:32;3.65;;;1.67;;
22955;SDS011;40888;48.148;11.526;2022-07-06T00:37:59;4.15;;;1.85;;
22955;SDS011;40888;48.148;11.526;2022-07-06T00:40:25;2.05;;;1.67;;
22955;SDS011;40888;48.148;11.526;2022-07-06T00:42:51;2.05;;;1.60;;
22955;SDS011;40888;48.148;11.526;2022-07-06T00:45:18;2.03;;;1.70;;
22955;SDS011;40888;48.148;11.526;2022-07-06T00:47:45;2.50;;;1.60;;
22955;SDS011;40888;48.148;11.526;2022-07-06T00:50:12;1.83;;;1.70;;
22955;SDS011;40888;48.148;11.526;2022-07-06T00:52:39;3.90;;;1.80;;
22955;SDS011;40888;48.148;11.526;2022-07-06T00:55:06;1.98;;;1.50;;
22955;SDS011;40888;48.148;11.526;2022-07-06T00:57:34;1.70;;;1.60;;
22955;SDS011;40888;48.148;11.526;2022-07-06T01:00:01;4.35;;;1.92;;
22955;SDS011;40888;48.148;11.526;2022-07-06T01:02:29;3.40;;;1.70;;
22955;SDS011;40888;48.148;11.526;2022-07-06T01:04:56;1.60;;;1.50;;
22955;SDS011;40888;48.148;11.526;2022-07-06T01:07:22;2.20;;;1.58;;
22955;SDS011;40888;48.148;11.526;2022-07-06T01:09:49;1.77;;;1.67;;
22955;SDS011;40888;48.148;11.526;2022-07-06T01:12:15;3.80;;;1.92;;
22955;SDS011;40888;48.148;11.526;2022-07-06T01:14:41;4.70;;;1.98;;
22955;SDS011;40888;48.148;11.526;2022-07-06T01:17:08;1.63;;;1.52;;
22955;SDS011;40888;48.148;11.526;2022-07-06T01:19:34;1.77;;;1.67;;
22955;SDS011;40888;48.148;11.526;2022-07-06T01:22:00;2.63;;;1.48;;
22955;SDS011;40888;48.148;11.526;2022-07-06T01:24:26;1.58;;;1.48;;
22955;SDS011;40888;48.148;11.526;2022-07-06T01:26:53;2.15;;;1.75;;
22955;SDS011;40888;48.148;11.526;2022-07-06T01:29:19;2.65;;;1.90;;
22955;SDS011;40888;48.148;11.526;2022-07-06T01:31:46;1.70;;;1.40;;
22955;SDS011;40888;48.148;11.526;2022-07-06T01:34:13;1.83;;;1.73;;
22955;SDS011;40888;48.148;11.526;2022-07-06T01:36:40;1.98;;;1.83;;
22955;SDS011;40888;48.148;11.526;2022-07-06T01:39:07;2.05;;;1.85;;
22955;SDS011;40888;48.148;11.526;2022-07-06T01:41:34;2.40;;;1.55;;
22955;SDS011;40888;48.148;11.526;2022-07-06T01:44:00;1.60;;;1.50;;
22955;SDS011;40888;48.148;11.526;2022-07-06T01:46:26;1.55;;;1.45;;
22955;SDS011;40888;48.148;11.526;2022-07-06T01:48:53;1.77;;;1.67;;
22955;SDS011;40888;48.148;11.526;2022-07-06T01:51:19;2.47;;;1.13;;
22955;SDS011;40888;48.148;11.526;2022-07-06T01:53:45;1.77;;;1.67;;
22955;SDS011;40888;48.148;11.526;2022-07-06T01:56:11;3.30;;;1.65;;
22955;SDS011;40888;48.148;11.526;2022-07-06T01:58:38;1.85;;;1.20;;
22955;SDS011;40888;48.148;11.526;2022-07-06T02:01:08;1.77;;;1.48;;
22955;SDS011;40888;48.148;11.526;2022-07-06T02:03:34;2.90;;;1.73;;
22955;SDS011;40888;48.148;11.526;2022-07-06T02:06:01;3.03;;;1.50;;
22955;SDS011;40888;48.148;11.526;2022-07-06T02:08:27;4.38;;;1.50;;
22955;SDS011;40888;48.148;11.526;2022-07-06T02:10:53;1.50;;;1.40;;
22955;SDS011;40888;48.148;11.526;2022-07-06T02:13:19;1.50;;;1.40;;
22955;SDS011;40888;48.148;11.526;2022-07-06T02:15:45;2.50;;;1.40;;
22955;SDS011;40888;48.148;11.526;2022-07-06T02:18:11;1.58;;;1.48;;
22955;SDS011;40888;48.148;11.526;2022-07-06T02:20:37;2.72;;;1.70;;
22955;SDS011;40888;48.148;11.526;2022-07-06T02:23:04;3.00;;;1.60;;
22955;SDS011;40888;48.148;11.526;2022-07-06T02:25:30;1.50;;;1.40;;
22955;SDS011;40888;48.148;11.526;2022-07-06T02:27:56;2.15;;;1.40;;
22955;SDS011;40888;48.148;11.526;2022-07-06T02:30:22;1.35;;;1.33;;
22955;SDS011;40888;48.148;11.526;2022-07-06T02:32:48;1.60;;;1.50;;
22955;SDS011;40888;48.148;11.526;2022-07-06T02:35:14;1.92;;;1.50;;
22955;SDS011;40888;48.148;11.526;2022-07-06T02:37:40;2.72;;;1.58;;
22955;SDS011;40888;48.148;11.526;2022-07-06T02:40:07;1.23;;;1.13;;
22955;SDS011;40888;48.148;11.526;2022-07-06T02:42:33;1.70;;;1.60;;
22955;SDS011;40888;48.148;11.526;2022-07-06T02:44:59;2.90;;;1.60;;
22955;SDS011;40888;48.148;11.526;2022-07-06T02:47:25;1.25;;;1.15;;
22955;SDS011;40888;48.148;11.526;2022-07-06T02:49:51;1.88;;;1.50;;
22955;SDS011;40888;48.148;11.526;2022-07-06T02:52:18;1.50;;;1.40;;
22955;SDS011;40888;48.148;11.526;2022-07-06T02:54:44;1.27;;;1.27;;
22955;SDS011;40888;48.148;11.526;2022-07-06T02:57:11;4.28;;;1.50;;
22955;SDS011;40888;48.148;11.526;2022-07-06T02:59:37;1.33;;;1.23;;
22955;SDS011;40888;48.148;11.526;2022-07-06T03:02:04;1.88;;;1.73;;
22955;SDS011;40888;48.148;11.526;2022-07-06T03:04:30;1.40;;;1.30;;
22955;SDS011;40888;48.148;11.526;2022-07-06T03:06:56;1.80;;;1.70;;
22955;SDS011;40888;48.148;11.526;2022-07-06T03:09:22;1.70;;;1.60;;
22955;SDS011;40888;48.148;11.526;2022-07-06T03:11:48;2.35;;;1.73;;
22955;SDS011;40888;48.148;11.526;2022-07-06T03:14:14;1.95;;;1.38;;
22955;SDS011;40888;48.148;11.526;2022-07-06T03:16:40;1.60;;;1.50;;
22955;SDS011;40888;48.148;11.526;2022-07-06T03:19:07;2.90;;;1.92;;
22955;SDS011;40888;48.148;11.526;2022-07-06T03:21:33;1.97;;;1.70;;
22955;SDS011;40888;48.148;11.526;2022-07-06T03:23:59;1.70;;;1.60;;
22955;SDS011;40888;48.148;11.526;2022-07-06T03:26:25;4.32;;;1.70;;
22955;SDS011;40888;48.148;11.526;2022-07-06T03:28:51;2.03;;;1.75;;
22955;SDS011;40888;48.148;11.526;2022-07-06T03:31:17;1.97;;;1.80;;
22955;SDS011;40888;48.148;11.526;2022-07-06T03:33:43;1.80;;;1.63;;
22955;SDS011;40888;48.148;11.526;2022-07-06T03:36:09;2.07;;;1.87;;
22955;SDS011;40888;48.148;11.526;2022-07-06T03:38:36;1.95;;;1.85;;
22955;SDS011;40888;48.148;11.526;2022-07-06T03:41:02;4.28;;;1.90;;
22955;SDS011;40888;48.148;11.526;2022-07-06T03:43:28;1.60;;;1.50;;
22955;SDS011;40888;48.148;11.526;2022-07-06T03:45:55;2.55;;;1.70;;
22955;SDS011;40888;48.148;11.526;2022-07-06T03:48:21;2.20;;;1.83;;
22955;SDS011;40888;48.148;11.526;2022-07-06T03:50:47;2.13;;;2.03;;
22955;SDS011;40888;48.148;11.526;2022-07-06T03:53:13;2.37;;;2.17;;
22955;SDS011;40888;48.148;11.526;2022-07-06T03:55:40;1.70;;;1.60;;
22955;SDS011;40888;48.148;11.526;2022-07-06T03:58:06;2.50;;;1.60;;
22955;SDS011;40888;48.148;11.526;2022-07-06T04:00:32;2.53;;;1.80;;
22955;SDS011;40888;48.148;11.526;2022-07-06T04:03:00;1.73;;;1.63;;
22955;SDS011;40888;48.148;11.526;2022-07-06T04:05:26;2.13;;;1.80;;
22955;SDS011;40888;48.148;11.526;2022-07-06T04:07:52;2.17;;;1.57;;
22955;SDS011;40888;48.148;11.526;2022-07-06T04:10:18;2.50;;;1.88;;
22955;SDS011;40888;48.148;11.526;2022-07-06T04:12:44;2.67;;;1.77;;
22955;SDS011;40888;48.148;11.526;2022-07-06T04:15:11;3.17;;;1.80;;
22955;SDS011;40888;48.148;11.526;2022-07-06T04:17:37;2.20;;;2.00;;
22955;SDS011;40888;48.148;11.526;2022-07-06T04:20:19;2.63;;;2.03;;
22955;SDS011;40888;48.148;11.526;2022-07-06T04:22:46;2.20;;;2.10;;
22955;SDS011;40888;48.148;11.526;2022-07-06T04:25:12;2.75;;;2.05;;
22955;SDS011;40888;48.148;11.526;2022-07-06T04:27:38;2.10;;;2.00;;
22955;SDS011;40888;48.148;11.526;2022-07-06T04:30:06;2.20;;;2.00;;
22955;SDS011;40888;48.148;11.526;2022-07-06T04:32:32;1.90;;;1.80;;
22955;SDS011;40888;48.148;11.526;2022-07-06T04:34:58;3.83;;;2.13;;
22955;SDS011;40888;48.148;11.526;2022-07-06T04:37:24;2.20;;;1.70;;
22955;SDS011;40888;48.148;11.526;2022-07-06T04:39:50;2.90;;;2.23;;
22955;SDS011;40888;48.148;11.526;2022-07-06T04:42:16;2.53;;;1.98;;
22955;SDS011;40888;48.148;11.526;2022-07-06T04:44:43;3.80;;;1.98;;
22955;SDS011;40888;48.148;11.526;2022-07-06T04:47:09;2.35;;;2.15;;
22955;SDS011;40888;48.148;11.526;2022-07-06T04:49:35;3.65;;;2.00;;
22955;SDS011;40888;48.148;11.526;2022-07-06T04:52:01;2.30;;;2.10;;
22955;SDS011;40888;48.148;11.526;2022-07-06T04:54:27;4.20;;;2.10;;
22955;SDS011;40888;48.148;11.526;2022-07-06T04:56:53;3.22;;;2.20;;
22955;SDS011;40888;48.148;11.526;2022-07-06T04:59:19;9.48;;;2.30;;
22955;SDS011;40888;48.148;11.526;2022-07-06T05:01:45;4.35;;;2.25;;
22955;SDS011;40888;48.148;11.526;2022-07-06T05:04:11;2.88;;;1.95;;
22955;SDS011;40888;48.148;11.526;2022-07-06T05:06:38;2.03;;;1.92;;
22955;SDS011;40888;48.148;11.526;2022-07-06T05:09:05;1.88;;;1.77;;
22955;SDS011;40888;48.148;11.526;2022-07-06T05:11:31;1.65;;;1.55;;
22955;SDS011;40888;48.148;11.526;2022-07-06T05:13:57;4.50;;;2.33;;
22955;SDS011;40888;48.148;11.526;2022-07-06T05:16:23;1.85;;;1.75;;
22955;SDS011;40888;48.148;11.526;2022-07-06T05:18:49;1.70;;;1.60;;
22955;SDS011;40888;48.148;11.526;2022-07-06T05:21:17;4.50;;;1.70;;
22955;SDS011;40888;48.148;11.526;2022-07-06T05:23:43;2.38;;;1.75;;
22955;SDS011;40888;48.148;11.526;2022-07-06T05:26:09;3.83;;;2.75;;
22955;SDS011;40888;48.148;11.526;2022-07-06T05:28:35;1.88;;;1.70;;
22955;SDS011;40888;48.148;11.526;2022-07-06T05:31:01;3.92;;;1.70;;
22955;SDS011;40888;48.148;11.526;2022-07-06T05:33:27;2.22;;;2.00;;
22955;SDS011;40888;48.148;11.526;2022-07-06T05:35:54;2.30;;;2.00;;
22955;SDS011;40888;48.148;11.526;2022-07-06T05:38:20;3.35;;;2.25;;
22955;SDS011;40888;48.148;11.526;2022-07-06T05:40:46;2.10;;;1.90;;
22955;SDS011;40888;48.148;11.526;2022-07-06T05:43:12;1.73;;;1.63;;
22955;SDS011;40888;48.148;11.526;2022-07-06T05:45:38;6.18;;;1.90;;
22955;SDS011;40888;48.148;11.526;2022-07-06T05:48:04;2.75;;;1.80;;
22955;SDS011;40888;48.148;11.526;2022-07-06T05:50:49;4.45;;;1.92;;
22955;SDS011;40888;48.148;11.526;2022-07-06T05:53:15;2.83;;;1.90;;
22955;SDS011;40888;48.148;11.526;2022-07-06T05:55:41;2.15;;;1.95;;
22955;SDS011;40888;48.148;11.526;2022-07-06T05:58:07;2.10;;;1.90;;
22955;SDS011;40888;48.148;11.526;2022-07-06T06:00:33;10.18;;;2.00;;
22955;SDS011;40888;48.148;11.526;2022-07-06T06:03:00;3.80;;;2.38;;
22955;SDS011;40888;48.148;11.526;2022-07-06T06:05:26;2.13;;;1.90;;
22955;SDS011;40888;48.148;11.526;2022-07-06T06:07:52;2.45;;;1.55;;
22955;SDS011;40888;48.148;11.526;2022-07-06T06:10:19;4.50;;;2.00;;
22955;SDS011;40888;48.148;11.526;2022-07-06T06:12:47;3.88;;;1.92;;
22955;SDS011;40888;48.148;11.526;2022-07-06T06:15:13;3.80;;;2.42;;
22955;SDS011;40888;48.148;11.526;2022-07-06T06:17:39;2.05;;;1.80;;
22955;SDS011;40888;48.148;11.526;2022-07-06T06:20:07;1.55;;;1.45;;
22955;SDS011;40888;48.148;11.526;2022-07-06T06:22:52;2.72;;;2.20;;
22955;SDS011;40888;48.148;11.526;2022-07-06T06:25:19;2.15;;;1.95;;
22955;SDS011;40888;48.148;11.526;2022-07-06T06:27:46;3.67;;;2.10;;
22955;SDS011;40888;48.148;11.526;2022-07-06T06:30:13;4.78;;;2.15;;
22955;SDS011;40888;48.148;11.526;2022-07-06T06:32:39;2.40;;;2.20;;
22955;SDS011;40888;48.148;11.526;2022-07-06T06:35:06;3.50;;;2.35;;
22955;SDS011;40888;48.148;11.526;2022-07-06T06:37:32;2.15;;;2.00;;
22955;SDS011;40888;48.148;11.526;2022-07-06T06:39:59;2.30;;;2.10;;
22955;SDS011;40888;48.148;11.526;2022-07-06T06:42:25;2.38;;;2.17;;
22955;SDS011;40888;48.148;11.526;2022-07-06T06:44:52;2.53;;;2.33;;
22955;SDS011;40888;48.148;11.526;2022-07-06T06:47:18;2.10;;;2.00;;
22955;SDS011;40888;48.148;11.526;2022-07-06T06:49:45;3.70;;;2.13;;
22955;SDS011;40888;48.148;11.526;2022-07-06T06:52:12;2.40;;;2.20;;
22955;SDS011;40888;48.148;11.526;2022-07-06T06:54:38;2.55;;;2.35;;
22955;SDS011;40888;48.148;11.526;2022-07-06T06:57:04;2.60;;;2.40;;
22955;SDS011;40888;48.148;11.526;2022-07-06T06:59:31;4.30;;;2.05;;
22955;SDS011;40888;48.148;11.526;2022-07-06T07:01:57;2.40;;;1.88;;
22955;SDS011;40888;48.148;11.526;2022-07-06T07:04:23;3.15;;;2.40;;
22955;SDS011;40888;48.148;11.526;2022-07-06T07:06:49;6.63;;;2.67;;
22955;SDS011;40888;48.148;11.526;2022-07-06T07:09:15;4.47;;;2.13;;
22955;SDS011;40888;48.148;11.526;2022-07-06T07:11:41;4.20;;;2.10;;
22955;SDS011;40888;48.148;11.526;2022-07-06T07:14:08;5.28;;;2.83;;
22955;SDS011;40888;48.148;11.526;2022-07-06T07:16:34;4.00;;;2.33;;
22955;SDS011;40888;48.148;11.526;2022-07-06T07:19:00;5.85;;;2.75;;
22955;SDS011;40888;48.148;11.526;2022-07-06T07:21:26;2.35;;;2.15;;
22955;SDS011;40888;48.148;11.526;2022-07-06T07:23:52;3.13;;;2.17;;
22955;SDS011;40888;48.148;11.526;2022-07-06T07:26:18;3.25;;;2.38;;
22955;SDS011;40888;48.148;11.526;2022-07-06T07:28:44;5.55;;;2.17;;
22955;SDS011;40888;48.148;11.526;2022-07-06T07:31:11;3.75;;;1.98;;
22955;SDS011;40888;48.148;11.526;2022-07-06T07:33:38;2.15;;;1.95;;
22955;SDS011;40888;48.148;11.526;2022-07-06T07:36:04;4.95;;;2.10;;
22955;SDS011;40888;48.148;11.526;2022-07-06T07:38:30;4.47;;;2.10;;
22955;SDS011;40888;48.148;11.526;2022-07-06T07:40:56;1.65;;;1.55;;
22955;SDS011;40888;48.148;11.526;2022-07-06T07:43:22;5.13;;;2.20;;
22955;SDS011;40888;48.148;11.526;2022-07-06T07:45:48;2.60;;;2.25;;
22955;SDS011;40888;48.148;11.526;2022-07-06T07:48:15;4.75;;;2.28;;
22955;SDS011;40888;48.148;11.526;2022-07-06T07:50:41;2.00;;;1.90;;
22955;SDS011;40888;48.148;11.526;2022-07-06T07:53:07;5.57;;;2.25;;
22955;SDS011;40888;48.148;11.526;2022-07-06T07:55:33;2.22;;;2.00;;
22955;SDS011;40888;48.148;11.526;2022-07-06T07:57:59;3.17;;;1.85;;
22955;SDS011;40888;48.148;11.526;2022-07-06T08:00:26;3.28;;;2.08;;
22955;SDS011;40888;48.148;11.526;2022-07-06T08:02:53;5.50;;;2.38;;
22955;SDS011;40888;48.148;11.526;2022-07-06T08:05:20;2.35;;;1.83;;
22955;SDS011;40888;48.148;11.526;2022-07-06T08:07:46;3.15;;;2.20;;
22955;SDS011;40888;48.148;11.526;2022-07-06T08:10:12;2.58;;;2.08;;
22955;SDS011;40888;48.148;11.526;2022-07-06T08:12:38;3.25;;;2.22;;
22955;SDS011;40888;48.148;11.526;2022-07-06T08:15:04;2.80;;;2.17;;
22955;SDS011;40888;48.148;11.526;2022-07-06T08:17:31;3.17;;;2.00;;
22955;SDS011;40888;48.148;11.526;2022-07-06T08:19:57;4.35;;;2.10;;
22955;SDS011;40888;48.148;11.526;2022-07-06T08:22:23;6.47;;;2.63;;
22955;SDS011;40888;48.148;11.526;2022-07-06T08:24:49;2.00;;;1.90;;
22955;SDS011;40888;48.148;11.526;2022-07-06T08:27:15;2.50;;;2.17;;
22955;SDS011;40888;48.148;11.526;2022-07-06T08:29:42;5.88;;;2.33;;
22955;SDS011;40888;48.148;11.526;2022-07-06T08:32:08;7.43;;;2.10;;
22955;SDS011;40888;48.148;11.526;2022-07-06T08:34:34;3.38;;;2.17;;
22955;SDS011;40888;48.148;11.526;2022-07-06T08:37:00;2.28;;;2.00;;
22955;SDS011;40888;48.148;11.526;2022-07-06T08:39:26;2.95;;;2.38;;
22955;SDS011;40888;48.148;11.526;2022-07-06T08:41:52;4.60;;;2.53;;
22955;SDS011;40888;48.148;11.526;2022-07-06T08:44:20;4.13;;;1.85;;
22955;SDS011;40888;48.148;11.526;2022-07-06T08:46:47;2.30;;;2.10;;
22955;SDS011;40888;48.148;11.526;2022-07-06T08:49:16;2.88;;;2.38;;
22955;SDS011;40888;48.148;11.526;2022-07-06T08:51:43;2.20;;;2.00;;
22955;SDS011;40888;48.148;11.526;2022-07-06T08:54:09;4.55;;;1.88;;
22955;SDS011;40888;48.148;11.526;2022-07-06T08:56:37;2.75;;;2.10;;
22955;SDS011;40888;48.148;11.526;2022-07-06T08:59:03;3.50;;;2.65;;
22955;SDS011;40888;48.148;11.526;2022-07-06T09:01:32;2.75;;;2.55;;
22955;SDS011;40888;48.148;11.526;2022-07-06T09:03:59;6.07;;;2.38;;
22955;SDS011;40888;48.148;11.526;2022-07-06T09:06:26;2.58;;;1.98;;
22955;SDS011;40888;48.148;11.526;2022-07-06T09:08:53;3.08;;;2.60;;
22955;SDS011;40888;48.148;11.526;2022-07-06T09:11:20;5.72;;;2.42;;
22955;SDS011;40888;48.148;11.526;2022-07-06T09:13:47;3.67;;;2.38;;
22955;SDS011;40888;48.148;11.526;2022-07-06T09:16:13;5.82;;;2.33;;
22955;SDS011;40888;48.148;11.526;2022-07-06T09:18:41;4.68;;;2.20;;
22955;SDS011;40888;48.148;11.526;2022-07-06T09:21:09;2.83;;;2.38;;
22955;SDS011;40888;48.148;11.526;2022-07-06T09:23:36;2.92;;;2.33;;
22955;SDS011;40888;48.148;11.526;2022-07-06T09:26:02;7.75;;;2.30;;
22955;SDS011;40888;48.148;11.526;2022-07-06T09:28:41;2.92;;;2.45;;
22955;SDS011;40888;48.148;11.526;2022-07-06T09:31:08;4.45;;;2.40;;
22955;SDS011;40888;48.148;11.526;2022-07-06T09:33:34;2.45;;;2.20;;
22955;SDS011;40888;48.148;11.526;2022-07-06T09:36:00;3.85;;;2.50;;
22955;SDS011;40888;48.148;11.526;2022-07-06T09:38:27;5.05;;;2.25;;
22955;SDS011;40888;48.148;11.526;2022-07-06T09:40:53;3.28;;;2.10;;
22955;SDS011;40888;48.148;11.526;2022-07-06T09:43:20;3.88;;;2.28;;
22955;SDS011;40888;48.148;11.526;2022-07-06T09:45:54;3.38;;;2.30;;
22955;SDS011;40888;48.148;11.526;2022-07-06T09:48:24;2.75;;;2.05;;
22955;SDS011;40888;48.148;11.526;2022-07-06T09:50:51;6.05;;;2.35;;
22955;SDS011;40888;48.148;11.526;2022-07-06T09:53:18;4.18;;;2.45;;
22955;SDS011;40888;48.148;11.526;2022-07-06T09:55:45;5.72;;;2.67;;
22955;SDS011;40888;48.148;11.526;2022-07-06T09:58:12;4.88;;;2.00;;
22955;SDS011;40888;48.148;11.526;2022-07-06T10:00:38;3.38;;;2.20;;
22955;SDS011;40888;48.148;11.526;2022-07-06T10:03:05;6.43;;;2.20;;
22955;SDS011;40888;48.148;11.526;2022-07-06T10:05:31;6.68;;;2.40;;
22955;SDS011;40888;48.148;11.526;2022-07-06T10:07:58;2.70;;;2.50;;
22955;SDS011;40888;48.148;11.526;2022-07-06T10:10:29;3.08;;;2.35;;
22955;SDS011;40888;48.148;11.526;2022-07-06T10:12:56;4.00;;;2.42;;
22955;SDS011;40888;48.148;11.526;2022-07-06T10:15:26;3.65;;;2.47;;
22955;SDS011;40888;48.148;11.526;2022-07-06T10:17:53;4.95;;;2.30;;
22955;SDS011;40888;48.148;11.526;2022-07-06T10:20:20;4.18;;;2.17;;
22955;SDS011;40888;48.148;11.526;2022-07-06T10:22:46;3.72;;;2.33;;
22955;SDS011;40888;48.148;11.526;2022-07-06T10:25:13;3.45;;;2.33;;
22955;SDS011;40888;48.148;11.526;2022-07-06T10:27:41;5.85;;;2.60;;
22955;SDS011;40888;48.148;11.526;2022-07-06T10:30:08;4.70;;;2.40;;
22955;SDS011;40888;48.148;11.526;2022-07-06T10:32:35;2.38;;;2.05;;
22955;SDS011;40888;48.148;11.526;2022-07-06T10:35:03;2.22;;;2.10;;
22955;SDS011;40888;48.148;11.526;2022-07-06T10:37:30;4.97;;;2.30;;
22955;SDS011;40888;48.148;11.526;2022-07-06T10:39:58;4.40;;;2.28;;
22955;SDS011;40888;48.148;11.526;2022-07-06T10:42:50;2.35;;;2.15;;
22955;SDS011;40888;48.148;11.526;2022-07-06T10:50:38;2.85;;;2.47;;
22955;SDS011;40888;48.148;11.526;2022-07-06T10:53:12;2.75;;;2.00;;
22955;SDS011;40888;48.148;11.526;2022-07-06T10:55:39;2.85;;;2.15;;
22955;SDS011;40888;48.148;11.526;2022-07-06T10:58:05;2.75;;;2.13;;
22955;SDS011;40888;48.148;11.526;2022-07-06T11:05:58;5.55;;;2.42;;
22955;SDS011;40888;48.148;11.526;2022-07-06T11:11:13;3.10;;;2.20;;
22955;SDS011;40888;48.148;11.526;2022-07-06T11:13:42;3.90;;;2.22;;
22955;SDS011;40888;48.148;11.526;2022-07-06T11:16:08;4.28;;;1.80;;
22955;SDS011;40888;48.148;11.526;2022-07-06T11:18:48;2.13;;;1.80;;
22955;SDS011;40888;48.148;11.526;2022-07-06T11:21:15;2.40;;;1.98;;
22955;SDS011;40888;48.148;11.526;2022-07-06T11:23:42;3.38;;;2.03;;
22955;SDS011;40888;48.148;11.526;2022-07-06T11:26:08;3.58;;;2.00;;
22955;SDS011;40888;48.148;11.526;2022-07-06T11:28:35;3.25;;;1.98;;
22955;SDS011;40888;48.148;11.526;2022-07-06T11:31:02;4.18;;;1.98;;
22955;SDS011;40888;48.148;11.526;2022-07-06T11:33:29;2.28;;;1.95;;
22955;SDS011;40888;48.148;11.526;2022-07-06T11:38:57;2.40;;;2.00;;
22955;SDS011;40888;48.148;11.526;2022-07-06T11:41:23;2.97;;;2.28;;
22955;SDS011;40888;48.148;11.526;2022-07-06T11:43:50;2.47;;;1.92;;
22955;SDS011;40888;48.148;11.526;2022-07-06T11:46:37;3.28;;;2.22;;
22955;SDS011;40888;48.148;11.526;2022-07-06T11:49:04;2.25;;;1.70;;
22955;SDS011;40888;48.148;11.526;2022-07-06T11:51:37;4.47;;;1.85;;
22955;SDS011;40888;48.148;11.526;2022-07-06T11:54:11;3.28;;;2.10;;
22955;SDS011;40888;48.148;11.526;2022-07-06T11:56:38;2.40;;;2.20;;
22955;SDS011;40888;48.148;11.526;2022-07-06T11:59:04;4.93;;;2.05;;
22955;SDS011;40888;48.148;11.526;2022-07-06T12:01:30;2.60;;;1.90;;
22955;SDS011;40888;48.148;11.526;2022-07-06T12:04:00;2.13;;;1.70;;
22955;SDS011;40888;48.148;11.526;2022-07-06T12:06:30;2.95;;;2.17;;
22955;SDS011;40888;48.148;11.526;2022-07-06T12:08:56;3.10;;;1.98;;
22955;SDS011;40888;48.148;11.526;2022-07-06T12:11:30;2.08;;;1.85;;
22955;SDS011;40888;48.148;11.526;2022-07-06T12:14:13;2.63;;;1.77;;
22955;SDS011;40888;48.148;11.526;2022-07-06T12:16:40;2.97;;;1.80;;
22955;SDS011;40888;48.148;11.526;2022-07-06T12:19:06;3.15;;;1.80;;
22955;SDS011;40888;48.148;11.526;2022-07-06T12:21:33;2.28;;;2.00;;
22955;SDS011;40888;48.148;11.526;2022-07-06T12:24:00;2.20;;;2.00;;
22955;SDS011;40888;48.148;11.526;2022-07-06T12:26:27;3.92;;;2.05;;
22955;SDS011;40888;48.148;11.526;2022-07-06T12:29:11;2.90;;;1.75;;
22955;SDS011;40888;48.148;11.526;2022-07-06T12:34:12;2.47;;;1.92;;
22955;SDS011;40888;48.148;11.526;2022-07-06T12:36:42;3.22;;;1.95;;
22955;SDS011;40888;48.148;11.526;2022-07-06T12:39:13;3.33;;;2.25;;
22955;SDS011;40888;48.148;11.526;2022-07-06T12:41:49;2.65;;;1.70;;
22955;SDS011;40888;48.148;11.526;2022-07-06T12:44:17;2.83;;;1.80;;
22955;SDS011;40888;48.148;11.526;2022-07-06T12:46:43;2.72;;;2.00;;
22955;SDS011;40888;48.148;11.526;2022-07-06T12:49:11;2.30;;;1.80;;
22955;SDS011;40888;48.148;11.526;2022-07-06T12:54:16;2.00;;;1.90;;
22955;SDS011;40888;48.148;11.526;2022-07-06T12:56:56;4.57;;;1.80;;
22955;SDS011;40888;48.148;11.526;2022-07-06T12:59:22;2.85;;;1.70;;
22955;SDS011;40888;48.148;11.526;2022-07-06T13:01:48;2.33;;;1.80;;
22955;SDS011;40888;48.148;11.526;2022-07-06T13:04:21;3.78;;;1.40;;
22955;SDS011;40888;48.148;11.526;2022-07-06T13:06:47;1.95;;;1.65;;
22955;SDS011;40888;48.148;11.526;2022-07-06T13:09:13;4.97;;;1.65;;
22955;SDS011;40888;48.148;11.526;2022-07-06T13:11:41;1.80;;;1.70;;
22955;SDS011;40888;48.148;11.526;2022-07-06T13:14:08;3.20;;;1.80;;
22955;SDS011;40888;48.148;11.526;2022-07-06T13:16:35;1.80;;;1.70;;
22955;SDS011;40888;48.148;11.526;2022-07-06T13:19:01;3.10;;;1.60;;
22955;SDS011;40888;48.148;11.526;2022-07-06T13:21:28;2.70;;;1.80;;
22955;SDS011;40888;48.148;11.526;2022-07-06T13:23:54;3.40;;;1.50;;
22955;SDS011;40888;48.148;11.526;2022-07-06T13:26:20;2.78;;;1.80;;
22955;SDS011;40888;48.148;11.526;2022-07-06T13:28:46;2.42;;;1.67;;
22955;SDS011;40888;48.148;11.526;2022-07-06T13:31:12;5.38;;;1.70;;
22955;SDS011;40888;48.148;11.526;2022-07-06T13:33:38;2.63;;;1.90;;
22955;SDS011;40888;48.148;11.526;2022-07-06T13:36:05;3.45;;;1.85;;
22955;SDS011;40888;48.148;11.526;2022-07-06T13:38:31;6.30;;;2.00;;
22955;SDS011;40888;48.148;11.526;2022-07-06T13:40:57;2.72;;;1.48;;
22955;SDS011;40888;48.148;11.526;2022-07-06T13:43:23;4.32;;;1.90;;
22955;SDS011;40888;48.148;11.526;2022-07-06T13:45:49;3.03;;;1.83;;
22955;SDS011;40888;48.148;11.526;2022-07-06T13:48:15;5.30;;;1.92;;
22955;SDS011;40888;48.148;11.526;2022-07-06T13:50:41;5.72;;;1.60;;
22955;SDS011;40888;48.148;11.526;2022-07-06T13:53:07;2.95;;;1.40;;
22955;SDS011;40888;48.148;11.526;2022-07-06T13:55:34;2.20;;;1.75;;
22955;SDS011;40888;48.148;11.526;2022-07-06T13:58:00;2.20;;;1.67;;
22955;SDS011;40888;48.148;11.526;2022-07-06T14:00:27;4.03;;;1.90;;
22955;SDS011;40888;48.148;11.526;2022-07-06T14:02:53;2.55;;;1.63;;
22955;SDS011;40888;48.148;11.526;2022-07-06T14:05:19;3.40;;;1.65;;
22955;SDS011;40888;48.148;11.526;2022-07-06T14:07:45;4.22;;;1.88;;
22955;SDS011;40888;48.148;11.526;2022-07-06T14:10:11;2.95;;;1.63;;
22955;SDS011;40888;48.148;11.526;2022-07-06T14:12:37;1.85;;;1.75;;
22955;SDS011;40888;48.148;11.526;2022-07-06T14:15:03;2.92;;;1.33;;
22955;SDS011;40888;48.148;11.526;2022-07-06T14:17:30;5.38;;;1.70;;
22955;SDS011;40888;48.148;11.526;2022-07-06T14:19:56;1.60;;;1.50;;
22955;SDS011;40888;48.148;11.526;2022-07-06T14:22:22;3.63;;;2.05;;
22955;SDS011;40888;48.148;11.526;2022-07-06T14:24:48;1.98;;;1.67;;
22955;SDS011;40888;48.148;11.526;2022-07-06T14:27:14;3.97;;;1.80;;
22955;SDS011;40888;48.148;11.526;2022-07-06T14:29:40;2.22;;;1.60;;
22955;SDS011;40888;48.148;11.526;2022-07-06T14:32:06;2.25;;;1.65;;
22955;SDS011;40888;48.148;11.526;2022-07-06T14:34:32;4.32;;;1.67;;
22955;SDS011;40888;48.148;11.526;2022-07-06T14:36:58;1.73;;;1.40;;
22955;SDS011;40888;48.148;11.526;2022-07-06T14:39:25;3.17;;;1.67;;
22955;SDS011;40888;48.148;11.526;2022-07-06T14:41:51;2.08;;;1.40;;
22955;SDS011;40888;48.148;11.526;2022-07-06T14:44:17;5.07;;;1.77;;
22955;SDS011;40888;48.148;11.526;2022-07-06T14:46:43;2.72;;;1.55;;
22955;SDS011;40888;48.148;11.526;2022-07-06T14:49:09;2.65;;;1.50;;
22955;SDS011;40888;48.148;11.526;2022-07-06T14:51:35;2.63;;;1.50;;
22955;SDS011;40888;48.148;11.526;2022-07-06T14:54:01;4.68;;;1.60;;